Time;durP1;ratioP1;P1;durP2;ratioP2;P2;SDS_P1;SDS_P2;PMS_P1;PMS_P2;Temp;Humidity;BMP_temperature;BMP_pressure;BME280_temperature;BME280_humidity;BME280_pressure;Samples;Min_cycle;Max_cycle;Signal;HPM_P1;HPM_P2
2024/01/02 00:01:21;;;;;;;12.93;4.68;;;;;;;6.72;100.00;99907.34;5063592;28;20107;-59
2024/01/02 00:03:46;;;;;;;11.80;3.58;;;;;;;6.70;100.00;99899.50;5064902;28;20035;-59
2024/01/02 00:06:16;;;;;;;9.20;3.30;;;;;;;6.69;100.00;99900.47;5063324;28;20073;-59
2024/01/02 00:08:42;;;;;;;10.73;3.20;;;;;;;6.68;100.00;99885.56;5065188;28;20029;-59
2024/01/02 00:11:08;;;;;;;8.63;3.83;;;;;;;6.68;100.00;99885.56;5063091;28;20028;-59
2024/01/02 00:13:34;;;;;;;10.52;3.80;;;;;;;6.72;100.00;99886.22;5063072;28;20434;-59
2024/01/02 00:15:59;;;;;;;5.93;3.22;;;;;;;6.68;100.00;99880.28;5061877;28;20020;-59
2024/01/02 00:18:25;;;;;;;11.00;3.65;;;;;;;6.70;100.00;99870.44;5060626;28;20043;-59
2024/01/02 00:20:50;;;;;;;8.82;3.28;;;;;;;6.71;100.00;99855.47;5063759;28;20020;-59
2024/01/02 00:23:16;;;;;;;6.95;2.45;;;;;;;6.81;100.00;99841.53;5061813;28;20020;-59
2024/01/02 00:25:42;;;;;;;6.70;2.97;;;;;;;6.72;100.00;99818.34;5063498;28;20047;-59
2024/01/02 00:28:08;;;;;;;5.00;2.90;;;;;;;6.70;100.00;99808.81;5061461;28;20096;-59
2024/01/02 00:30:34;;;;;;;9.38;2.92;;;;;;;6.71;100.00;99798.16;5061818;28;20483;-59
2024/01/02 00:33:03;;;;;;;4.60;2.83;;;;;;;6.69;100.00;99783.34;5064281;28;20029;-59
2024/01/02 00:35:29;;;;;;;6.20;2.53;;;;;;;6.72;100.00;99777.88;5062900;28;20036;-59
2024/01/02 00:37:57;;;;;;;8.18;2.70;;;;;;;6.69;100.00;99767.50;5062834;28;20104;-59
2024/01/02 00:40:23;;;;;;;12.32;3.65;;;;;;;6.72;100.00;99752.28;5061041;28;20048;-59
2024/01/02 00:42:50;;;;;;;10.95;2.88;;;;;;;6.74;100.00;99741.66;5061013;28;20040;-59
2024/01/02 00:45:16;;;;;;;6.43;3.35;;;;;;;6.63;100.00;99709.78;5061891;28;20029;-59
2024/01/02 00:47:42;;;;;;;8.60;2.78;;;;;;;6.74;100.00;99712.56;5062676;28;20029;-59
2024/01/02 00:50:08;;;;;;;6.82;2.47;;;;;;;6.70;100.00;99705.78;5062415;28;20458;-59
2024/01/02 00:52:33;;;;;;;2.70;2.50;;;;;;;6.72;100.00;99696.81;5062353;28;20029;-59
2024/01/02 00:54:59;;;;;;;5.93;3.13;;;;;;;6.72;100.00;99677.47;5063222;28;20028;-59
2024/01/02 00:57:25;;;;;;;5.18;2.60;;;;;;;6.64;100.00;99663.91;5062796;28;20029;-59
2024/01/02 00:59:53;;;;;;;4.05;2.47;;;;;;;6.71;100.00;99654.66;5059247;28;20057;-60
2024/01/02 01:02:19;;;;;;;7.38;2.70;;;;;;;6.72;100.00;99651.88;5062966;28;20029;-59
2024/01/02 01:04:45;;;;;;;4.15;2.78;;;;;;;6.78;100.00;99648.00;5060461;28;20032;-59
2024/01/02 01:07:11;;;;;;;9.00;2.75;;;;;;;6.75;100.00;99645.56;5064404;28;20028;-59
2024/01/02 01:09:40;;;;;;;6.38;2.42;;;;;;;6.69;100.00;99620.38;5063695;28;20021;-59
2024/01/02 01:12:06;;;;;;;4.47;2.30;;;;;;;6.75;100.00;99605.94;5062187;28;20502;-59
2024/01/02 01:14:32;;;;;;;8.13;2.63;;;;;;;6.77;100.00;99612.81;5061567;28;20024;-59
2024/01/02 01:17:00;;;;;;;4.72;2.40;;;;;;;6.76;100.00;99616.38;5062327;28;20068;-59
2024/01/02 01:19:26;;;;;;;4.10;2.65;;;;;;;6.77;100.00;99604.88;5058799;28;20088;-59
2024/01/02 01:21:52;;;;;;;3.88;2.30;;;;;;;6.80;100.00;99595.91;5061177;28;20045;-59
2024/01/02 01:24:18;;;;;;;4.95;2.33;;;;;;;6.86;100.00;99592.00;5061351;28;20086;-59
2024/01/02 01:26:44;;;;;;;5.22;2.40;;;;;;;6.76;100.00;99558.25;5062816;28;20104;-59
2024/01/02 01:29:12;;;;;;;3.40;2.53;;;;;;;6.81;100.00;99558.78;5059426;28;20021;-58
2024/01/02 01:31:38;;;;;;;6.10;3.58;;;;;;;6.79;100.00;99543.97;5061462;28;20536;-58
2024/01/02 01:34:06;;;;;;;2.15;1.95;;;;;;;6.82;100.00;99533.19;5060218;28;20033;-59
2024/01/02 01:36:31;;;;;;;4.13;2.15;;;;;;;6.82;100.00;99519.97;5058296;28;20803;-58
2024/01/02 01:38:59;;;;;;;2.60;2.40;;;;;;;6.85;100.00;99517.13;5060973;28;20028;-58
2024/01/02 01:41:24;;;;;;;3.10;2.05;;;;;;;6.83;100.00;99517.25;5059729;28;20056;-58
2024/01/02 01:43:49;;;;;;;3.78;2.17;;;;;;;6.83;100.00;99495.28;5062226;28;20407;-59
2024/01/02 01:46:15;;;;;;;2.10;2.00;;;;;;;6.89;100.00;99505.41;5060247;28;20398;-59
2024/01/02 01:48:41;;;;;;;2.05;1.95;;;;;;;6.88;100.00;99492.28;5062907;28;20494;-58
2024/01/02 01:51:07;;;;;;;2.35;2.10;;;;;;;6.85;100.00;99466.06;5061459;28;20032;-58
2024/01/02 01:53:34;;;;;;;2.20;2.10;;;;;;;6.88;100.00;99468.50;5042964;28;20041;-59
2024/01/02 01:55:59;;;;;;;2.50;1.98;;;;;;;6.85;100.00;99458.16;5059820;28;20017;-58
2024/01/02 01:58:26;;;;;;;2.42;2.22;;;;;;;6.87;100.00;99449.16;5061396;28;20024;-59
2024/01/02 02:00:51;;;;;;;2.13;1.95;;;;;;;6.89;100.00;99449.06;5059076;28;20029;-58
2024/01/02 02:03:18;;;;;;;2.22;2.03;;;;;;;6.88;100.00;99431.50;5066000;28;20027;-58
2024/01/02 02:05:45;;;;;;;2.22;2.03;;;;;;;6.87;100.00;99424.53;5059740;28;20020;-59
2024/01/02 02:08:10;;;;;;;2.47;2.00;;;;;;;6.94;100.00;99424.00;5062134;28;20456;-58
2024/01/02 02:10:35;;;;;;;2.63;2.42;;;;;;;6.90;100.00;99416.41;5059006;28;20107;-59
2024/01/02 02:13:01;;;;;;;2.22;2.13;;;;;;;6.92;100.00;99409.22;5060340;28;20044;-59
2024/01/02 02:15:27;;;;;;;4.63;2.13;;;;;;;6.91;100.00;99413.66;5058539;28;20475;-58
2024/01/02 02:17:52;;;;;;;2.65;2.45;;;;;;;6.93;100.00;99387.94;5062429;28;20031;-58
2024/01/02 02:20:20;;;;;;;2.00;1.90;;;;;;;6.94;100.00;99386.13;5058487;28;20107;-59
2024/01/02 02:22:50;;;;;;;2.25;2.05;;;;;;;6.93;100.00;99369.44;5063542;28;20040;-59
2024/01/02 02:25:16;;;;;;;3.55;1.88;;;;;;;6.89;100.00;99359.22;5062449;28;20060;-59
2024/01/02 02:27:45;;;;;;;1.95;1.85;;;;;;;6.94;100.00;99346.50;5062456;28;20029;-59
2024/01/02 02:30:11;;;;;;;2.20;2.10;;;;;;;6.89;100.00;99335.44;5060921;28;20029;-59
2024/01/02 02:32:39;;;;;;;3.30;2.08;;;;;;;6.90;100.00;99327.38;5062543;28;20531;-59
2024/01/02 02:35:05;;;;;;;1.98;1.83;;;;;;;7.00;100.00;99344.28;5043152;28;20108;-59
2024/01/02 02:37:31;;;;;;;2.13;2.03;;;;;;;6.96;100.00;99315.53;5060735;28;20181;-59
2024/01/02 02:39:56;;;;;;;1.80;1.70;;;;;;;7.05;100.00;99307.75;5064031;28;20061;-59
2024/01/02 02:42:21;;;;;;;2.22;2.03;;;;;;;7.03;100.00;99304.41;5065510;28;20112;-59
2024/01/02 02:44:47;;;;;;;1.75;1.67;;;;;;;7.01;100.00;99290.44;5063054;28;20043;-59
2024/01/02 02:47:12;;;;;;;2.28;2.17;;;;;;;7.03;100.00;99293.84;5068424;28;20028;-58
2024/01/02 02:49:38;;;;;;;3.03;2.00;;;;;;;7.04;100.00;99289.38;5064161;28;20037;-59
2024/01/02 02:52:04;;;;;;;2.00;1.90;;;;;;;7.04;100.00;99270.88;5063636;28;20131;-59
2024/01/02 02:54:29;;;;;;;1.95;1.85;;;;;;;7.01;100.00;99282.53;5064409;28;20461;-59
2024/01/02 02:56:56;;;;;;;2.00;1.88;;;;;;;7.02;100.00;99264.84;5067118;28;20059;-59
2024/01/02 02:59:21;;;;;;;2.00;1.90;;;;;;;7.03;100.00;99251.53;5063527;28;20468;-59
2024/01/02 03:01:47;;;;;;;1.95;1.77;;;;;;;7.06;100.00;99231.97;5064456;28;20025;-59
2024/01/02 03:04:12;;;;;;;2.08;1.98;;;;;;;7.05;100.00;99233.75;5064957;28;20024;-59
2024/01/02 03:06:37;;;;;;;2.05;1.95;;;;;;;7.04;100.00;99220.66;5062552;28;20035;-59
2024/01/02 03:09:06;;;;;;;2.05;1.90;;;;;;;6.99;100.00;99185.78;5061176;28;20411;-59
2024/01/02 03:11:31;;;;;;;2.00;1.90;;;;;;;7.06;100.00;99187.03;5060102;28;20086;-59
2024/01/02 03:13:57;;;;;;;1.92;1.80;;;;;;;7.06;100.00;99176.47;5063161;28;20443;-59
2024/01/02 03:16:23;;;;;;;2.65;1.80;;;;;;;7.05;100.00;99167.66;5065312;28;20040;-59
2024/01/02 03:18:49;;;;;;;2.03;1.75;;;;;;;7.09;100.00;99165.66;5062955;28;20028;-59
2024/01/02 03:21:14;;;;;;;1.80;1.70;;;;;;;7.12;100.00;99162.78;5064871;28;20116;-59
2024/01/02 03:23:40;;;;;;;3.45;3.15;;;;;;;7.05;100.00;99143.88;5063634;28;20473;-59
2024/01/02 03:26:05;;;;;;;1.75;1.70;;;;;;;7.12;100.00;99151.34;5061747;28;20035;-59
2024/01/02 03:28:31;;;;;;;1.95;1.80;;;;;;;7.15;100.00;99143.19;5047445;28;20727;-59
2024/01/02 03:30:56;;;;;;;1.70;1.70;;;;;;;7.11;100.00;99134.63;5064497;28;20376;-59
2024/01/02 03:33:22;;;;;;;1.60;1.60;;;;;;;7.11;100.00;99129.34;5064415;28;20052;-59
2024/01/02 03:35:47;;;;;;;1.90;1.85;;;;;;;7.18;100.00;99117.34;5060542;28;20025;-59
2024/01/02 03:38:13;;;;;;;1.90;1.80;;;;;;;7.20;100.00;99117.22;5060981;28;20025;-59
2024/01/02 03:40:39;;;;;;;2.03;1.92;;;;;;;7.15;100.00;99101.72;5061834;28;20036;-58
2024/01/02 03:43:05;;;;;;;1.83;1.73;;;;;;;7.21;100.00;99116.28;5064614;28;20449;-58
2024/01/02 03:45:31;;;;;;;1.88;1.77;;;;;;;7.21;100.00;99100.41;5064032;28;20059;-59
2024/01/02 03:47:56;;;;;;;2.15;2.05;;;;;;;7.29;100.00;99111.22;5063374;28;20577;-59
2024/01/02 03:50:22;;;;;;;1.80;1.77;;;;;;;7.24;100.00;99108.94;5061964;28;20025;-59
2024/01/02 03:52:47;;;;;;;2.00;1.90;;;;;;;7.27;100.00;99108.72;5063004;28;20026;-58
2024/01/02 03:55:12;;;;;;;2.05;1.95;;;;;;;7.32;100.00;99102.22;5064219;28;20537;-58
2024/01/02 03:57:38;;;;;;;1.92;1.70;;;;;;;7.40;100.00;99110.41;5064211;28;20025;-59
2024/01/02 04:00:05;;;;;;;2.10;1.90;;;;;;;7.37;100.00;99090.31;5061063;28;20561;-59
2024/01/02 04:02:30;;;;;;;1.90;1.80;;;;;;;7.41;100.00;99091.78;5061675;28;20024;-59
2024/01/02 04:04:55;;;;;;;1.95;1.88;;;;;;;7.41;100.00;99070.63;5063846;28;20155;-59
2024/01/02 04:07:22;;;;;;;1.80;1.75;;;;;;;7.45;100.00;99079.16;5062061;28;20086;-59
2024/01/02 04:09:47;;;;;;;1.95;1.85;;;;;;;7.49;100.00;99068.19;5058246;28;20025;-59
2024/01/02 04:12:13;;;;;;;2.10;2.00;;;;;;;7.62;100.00;99077.81;5062864;28;20029;-59
2024/01/02 04:14:38;;;;;;;1.88;1.77;;;;;;;7.61;100.00;99078.78;5065345;28;20442;-59
2024/01/02 04:17:03;;;;;;;2.20;2.10;;;;;;;7.65;100.00;99065.19;5064346;28;20024;-58
2024/01/02 04:19:29;;;;;;;2.10;2.00;;;;;;;7.76;100.00;99069.59;5061697;28;20036;-59
2024/01/02 04:21:54;;;;;;;2.00;1.90;;;;;;;7.73;100.00;99062.78;5063528;28;20043;-59
2024/01/02 04:24:20;;;;;;;1.90;1.80;;;;;;;7.75;100.00;99046.75;5061430;28;20032;-59
2024/01/02 04:26:45;;;;;;;2.28;2.08;;;;;;;7.81;100.00;99056.00;5060738;28;20029;-59
2024/01/02 04:29:10;;;;;;;2.00;1.90;;;;;;;7.85;100.00;99046.84;5063142;28;20056;-58
2024/01/02 04:31:38;;;;;;;2.08;1.98;;;;;;;7.88;100.00;99047.47;5061852;28;20028;-59
2024/01/02 04:34:03;;;;;;;2.00;1.90;;;;;;;7.89;100.00;99050.94;5062999;28;20483;-59
2024/01/02 04:36:29;;;;;;;1.50;1.50;;;;;;;7.99;100.00;99056.34;5060730;28;20036;-59
2024/01/02 04:38:54;;;;;;;2.13;1.88;;;;;;;7.89;100.00;99038.56;5061100;28;20025;-58
2024/01/02 04:41:20;;;;;;;1.90;1.80;;;;;;;7.97;100.00;99045.84;5062033;28;20044;-59
2024/01/02 04:43:45;;;;;;;1.90;1.80;;;;;;;7.99;100.00;99033.34;5064068;28;20028;-59
2024/01/02 04:46:11;;;;;;;2.10;2.00;;;;;;;7.95;100.00;99046.00;5060702;28;20029;-58
2024/01/02 04:48:36;;;;;;;1.70;1.70;;;;;;;7.98;100.00;99026.38;5062012;28;20446;-59
2024/01/02 04:51:02;;;;;;;2.67;1.88;;;;;;;8.01;100.00;99030.59;5064354;28;20021;-59
2024/01/02 04:53:28;;;;;;;1.90;1.80;;;;;;;8.19;100.00;99034.34;5058765;28;20025;-59
2024/01/02 04:55:53;;;;;;;1.80;1.70;;;;;;;8.16;100.00;99038.09;5063141;28;20029;-59
2024/01/02 04:58:18;;;;;;;1.85;1.80;;;;;;;8.16;100.00;99034.63;5057510;28;20392;-58
2024/01/02 05:00:44;;;;;;;1.60;1.60;;;;;;;8.24;100.00;99049.88;5060544;28;20033;-59
2024/01/02 05:03:11;;;;;;;1.80;1.70;;;;;;;8.27;100.00;99041.69;5065402;28;20035;-58
2024/01/02 05:05:37;;;;;;;1.75;1.67;;;;;;;8.40;100.00;99037.91;5062330;28;20082;-59
2024/01/02 05:08:02;;;;;;;1.50;1.50;;;;;;;8.46;100.00;99044.50;5062641;28;20032;-59
2024/01/02 05:10:30;;;;;;;1.90;1.80;;;;;;;8.51;100.00;99049.44;5059594;28;20024;-59
2024/01/02 05:12:56;;;;;;;1.95;1.85;;;;;;;8.50;100.00;99039.78;5061093;28;20032;-58
2024/01/02 05:15:21;;;;;;;2.10;1.90;;;;;;;8.55;100.00;99056.13;5063007;28;20028;-59
2024/01/02 05:17:49;;;;;;;1.95;1.85;;;;;;;8.57;100.00;99040.97;5062122;28;20468;-59
2024/01/02 05:20:14;;;;;;;1.80;1.70;;;;;;;8.59;100.00;99044.34;5061550;28;20037;-59
2024/01/02 05:22:40;;;;;;;1.90;1.80;;;;;;;8.58;100.00;99042.63;5059499;28;20033;-59
2024/01/02 05:25:07;;;;;;;1.95;1.85;;;;;;;8.71;100.00;99053.91;5059001;28;20064;-59
2024/01/02 05:27:32;;;;;;;1.98;1.88;;;;;;;8.86;100.00;99063.19;5060472;28;20039;-58
2024/01/02 05:30:00;;;;;;;1.90;1.80;;;;;;;8.75;100.00;99042.06;5058644;28;20025;-59
2024/01/02 05:32:26;;;;;;;2.00;1.90;;;;;;;8.80;100.00;99045.16;5059914;28;20039;-59
2024/01/02 05:34:51;;;;;;;1.77;1.67;;;;;;;8.89;100.00;99045.38;5060283;28;20029;-59
2024/01/02 05:37:18;;;;;;;1.85;1.75;;;;;;;9.05;100.00;99051.00;5059321;28;20063;-59
2024/01/02 05:39:43;;;;;;;1.60;1.60;;;;;;;9.02;100.00;99048.63;5056980;28;20048;-59
2024/01/02 05:42:09;;;;;;;1.77;1.67;;;;;;;9.10;100.00;99048.81;5062800;28;20045;-59
2024/01/02 05:44:34;;;;;;;1.98;1.88;;;;;;;9.03;100.00;99037.91;5060632;28;20082;-58
2024/01/02 05:46:59;;;;;;;1.83;1.77;;;;;;;9.18;100.00;99046.34;5055783;28;20108;-59
2024/01/02 05:49:25;;;;;;;1.60;1.60;;;;;;;9.32;100.00;99045.13;5058530;28;20032;-59
2024/01/02 05:51:50;;;;;;;1.70;1.70;;;;;;;9.19;100.00;99063.94;5060289;28;20052;-58
2024/01/02 05:54:15;;;;;;;1.60;1.50;;;;;;;9.22;100.00;99063.66;5057777;28;20708;-59
2024/01/02 05:56:41;;;;;;;1.70;1.60;;;;;;;9.23;100.00;99069.81;5062646;28;20111;-59
2024/01/02 05:59:06;;;;;;;2.90;1.80;;;;;;;9.19;100.00;99073.72;5062540;28;20025;-58
2024/01/02 06:01:34;;;;;;;2.00;1.90;;;;;;;9.33;100.00;99071.56;5060748;28;20531;-59
2024/01/02 06:03:59;;;;;;;1.60;1.60;;;;;;;9.27;100.00;99076.56;5062218;28;20033;-59
2024/01/02 06:06:25;;;;;;;1.60;1.60;;;;;;;9.27;100.00;99090.66;5058267;28;20033;-59
2024/01/02 06:08:50;;;;;;;1.50;1.50;;;;;;;9.52;100.00;99094.66;5060924;28;20032;-59
2024/01/02 06:11:15;;;;;;;1.50;1.50;;;;;;;9.42;100.00;99085.84;5061812;28;20025;-58
2024/01/02 06:13:42;;;;;;;1.77;1.67;;;;;;;9.38;100.00;99094.19;5064267;28;20025;-58
2024/01/02 06:16:10;;;;;;;1.73;1.73;;;;;;;9.50;100.00;99093.97;5063032;28;20033;-60
2024/01/02 06:18:36;;;;;;;2.15;1.80;;;;;;;9.53;100.00;99088.41;5064613;28;20052;-59
2024/01/02 06:21:04;;;;;;;1.90;1.80;;;;;;;9.52;100.00;99105.28;5064165;28;20107;-59
2024/01/02 06:23:31;;;;;;;2.15;2.05;;;;;;;9.62;100.00;99099.16;5066158;28;20126;-59
2024/01/02 06:25:56;;;;;;;2.10;2.00;;;;;;;9.52;100.00;99102.63;5062314;28;20024;-59
2024/01/02 06:28:21;;;;;;;1.90;1.80;;;;;;;9.59;100.00;99094.13;5063412;28;20025;-59
2024/01/02 06:30:47;;;;;;;2.00;1.90;;;;;;;9.51;100.00;99108.06;5063835;28;20079;-59
2024/01/02 06:33:14;;;;;;;2.15;1.90;;;;;;;9.62;100.00;99123.91;5065116;28;20039;-59
2024/01/02 06:35:40;;;;;;;3.13;2.92;;;;;;;9.62;100.00;99115.09;5064718;28;20479;-59
2024/01/02 06:38:09;;;;;;;2.95;2.38;;;;;;;9.71;100.00;99124.94;5065065;28;20036;-59
2024/01/02 06:40:37;;;;;;;2.65;2.42;;;;;;;9.72;100.00;99122.13;5062834;28;20111;-59
2024/01/02 06:43:03;;;;;;;3.20;2.92;;;;;;;9.65;100.00;99122.81;5061541;28;20503;-59
2024/01/02 06:45:28;;;;;;;3.35;3.05;;;;;;;9.69;100.00;99110.94;5066054;28;20036;-59
2024/01/02 06:47:57;;;;;;;4.22;2.80;;;;;;;9.67;100.00;99111.06;5067149;28;20097;-59
2024/01/02 06:50:22;;;;;;;5.88;4.72;;;;;;;9.69;100.00;99117.09;5062257;28;20113;-59
2024/01/02 06:52:53;;;;;;;7.13;5.80;;;;;;;9.75;100.00;99121.84;5065630;28;20446;-59
2024/01/02 06:55:18;;;;;;;5.95;3.83;;;;;;;9.74;100.00;99127.31;5061495;28;20024;-59
2024/01/02 06:57:44;;;;;;;5.40;3.80;;;;;;;9.80;100.00;99126.78;5065680;28;20029;-59
2024/01/02 07:00:10;;;;;;;6.60;3.75;;;;;;;9.81;100.00;99131.09;5064074;28;20128;-59
2024/01/02 07:02:36;;;;;;;4.53;4.13;;;;;;;9.82;100.00;99137.25;5063214;28;20056;-59
2024/01/02 07:05:01;;;;;;;4.55;3.60;;;;;;;9.86;100.00;99136.03;5063322;28;20052;-59
2024/01/02 07:07:27;;;;;;;9.77;6.82;;;;;;;9.82;100.00;99148.72;5063932;28;20029;-59
2024/01/02 07:09:55;;;;;;;6.57;4.05;;;;;;;10.10;100.00;99157.75;5063985;28;20442;-59
2024/01/02 07:12:20;;;;;;;8.77;7.55;;;;;;;9.88;100.00;99152.63;5061941;28;20029;-59
2024/01/02 07:14:47;;;;;;;10.68;5.10;;;;;;;9.90;100.00;99158.66;5062142;28;20029;-59
2024/01/02 07:17:15;;;;;;;10.00;4.55;;;;;;;9.89;100.00;99163.16;5063817;28;20059;-60
2024/01/02 07:19:41;;;;;;;7.90;4.75;;;;;;;9.87;100.00;99153.63;5061927;28;20055;-59
2024/01/02 07:22:06;;;;;;;12.05;4.95;;;;;;;9.91;100.00;99157.69;5047626;28;20060;-59
2024/01/02 07:24:33;;;;;;;9.07;4.65;;;;;;;9.88;100.00;99155.28;5059973;28;20036;-59
2024/01/02 07:27:01;;;;;;;10.05;7.22;;;;;;;9.91;100.00;99163.84;5063760;28;20040;-59
2024/01/02 07:29:26;;;;;;;11.65;8.48;;;;;;;10.00;100.00;99176.34;5060875;28;20028;-59
2024/01/02 07:31:52;;;;;;;8.05;4.72;;;;;;;9.99;100.00;99187.91;5063765;28;20032;-59
2024/01/02 07:34:17;;;;;;;7.80;4.63;;;;;;;9.92;100.00;99172.66;5062893;28;20024;-59
2024/01/02 07:36:42;;;;;;;9.77;5.28;;;;;;;9.95;100.00;99167.09;5064624;28;20070;-60
2024/01/02 07:39:08;;;;;;;12.30;5.07;;;;;;;9.95;100.00;99183.00;5061506;28;20478;-59
2024/01/02 07:41:33;;;;;;;7.30;4.50;;;;;;;10.00;100.00;99191.44;5061835;28;20391;-59
2024/01/02 07:43:58;;;;;;;11.27;5.18;;;;;;;10.00;100.00;99200.22;5064117;28;20086;-59
2024/01/02 07:46:24;;;;;;;6.30;4.35;;;;;;;10.10;100.00;99194.94;5059257;28;20950;-59
2024/01/02 07:48:49;;;;;;;11.10;6.03;;;;;;;10.09;100.00;99192.41;5060566;28;20040;-63
2024/01/02 07:51:15;;;;;;;10.95;4.72;;;;;;;10.12;100.00;99198.31;5057216;28;20032;-59
2024/01/02 07:53:40;;;;;;;11.40;8.05;;;;;;;10.07;100.00;99195.22;5058157;28;20025;-59
2024/01/02 07:56:06;;;;;;;7.70;4.50;;;;;;;10.11;100.00;99195.78;5061119;28;20032;-59
2024/01/02 07:58:31;;;;;;;10.32;4.97;;;;;;;10.11;100.00;99211.72;5063070;28;20157;-59
2024/01/02 08:00:57;;;;;;;7.95;4.50;;;;;;;10.08;100.00;99204.03;5060657;28;20090;-61
2024/01/02 08:03:22;;;;;;;11.30;5.05;;;;;;;10.08;100.00;99199.53;5062970;28;20103;-59
2024/01/02 08:05:48;;;;;;;14.65;7.95;;;;;;;10.05;100.00;99209.59;5067465;28;20056;-59
2024/01/02 08:08:13;;;;;;;8.55;4.57;;;;;;;10.03;100.00;99215.06;5062104;28;20438;-60
2024/01/02 08:10:41;;;;;;;10.52;4.78;;;;;;;10.08;100.00;99210.16;5062981;28;20436;-59
2024/01/02 08:13:09;;;;;;;10.55;4.65;;;;;;;10.08;100.00;99204.84;5055421;28;20036;-64
2024/01/02 08:15:34;;;;;;;6.55;4.15;;;;;;;10.11;100.00;99214.38;5060887;28;20024;-59
2024/01/02 08:17:59;;;;;;;12.07;8.10;;;;;;;10.11;100.00;99217.03;5063933;28;20047;-59
2024/01/02 08:20:25;;;;;;;8.23;4.20;;;;;;;10.17;100.00;99216.50;5064602;28;20503;-60
2024/01/02 08:22:50;;;;;;;10.52;4.72;;;;;;;10.15;100.00;99221.13;5059411;28;20032;-59
2024/01/02 08:25:16;;;;;;;13.32;7.35;;;;;;;10.14;100.00;99228.22;5065591;28;20095;-59
2024/01/02 08:27:41;;;;;;;9.85;7.43;;;;;;;10.12;100.00;99224.88;5065364;28;20025;-59
2024/01/02 08:30:08;;;;;;;9.32;4.57;;;;;;;10.15;100.00;99231.75;5060826;28;20067;-59
2024/01/02 08:32:34;;;;;;;8.55;4.15;;;;;;;10.16;100.00;99234.25;5067403;28;20033;-59
2024/01/02 08:35:00;;;;;;;5.90;4.20;;;;;;;10.19;100.00;99230.50;5054507;28;20074;-59
2024/01/02 08:37:25;;;;;;;9.98;4.50;;;;;;;10.23;100.00;99232.75;5059587;28;20373;-59
2024/01/02 08:39:51;;;;;;;8.77;6.55;;;;;;;10.18;100.00;99228.81;5065283;28;20020;-60
2024/01/02 08:42:16;;;;;;;6.38;4.22;;;;;;;10.29;100.00;99219.91;5060959;28;20057;-59
2024/01/02 08:44:42;;;;;;;6.72;3.95;;;;;;;10.14;100.00;99203.47;5052124;28;20598;-59
2024/01/02 08:47:07;;;;;;;9.48;6.65;;;;;;;10.16;100.00;99213.00;5056779;28;20085;-59
2024/01/02 08:49:33;;;;;;;10.25;6.32;;;;;;;10.20;100.00;99203.78;5063761;28;20033;-59
2024/01/02 08:51:58;;;;;;;8.55;6.93;;;;;;;10.22;100.00;99198.34;5060039;28;20031;-59
2024/01/02 08:54:23;;;;;;;7.35;4.10;;;;;;;10.37;100.00;99197.00;5038236;28;20032;-59
2024/01/02 08:56:51;;;;;;;6.40;3.95;;;;;;;10.31;100.00;99210.84;5057199;28;20029;-59
2024/01/02 08:59:17;;;;;;;4.15;3.60;;;;;;;10.45;100.00;99217.59;5055818;28;20012;-59
2024/01/02 09:01:49;;;;;;;8.02;4.00;;;;;;;10.37;100.00;99212.13;5064860;28;20043;-59
2024/01/02 09:04:14;;;;;;;5.32;3.63;;;;;;;10.45;100.00;99206.97;5062260;28;20032;-59
2024/01/02 09:06:40;;;;;;;6.28;3.30;;;;;;;10.45;100.00;99207.81;5059346;28;20487;-59
2024/01/02 09:09:05;;;;;;;7.15;5.70;;;;;;;10.44;100.00;99203.47;5061046;28;20112;-59
2024/01/02 09:11:30;;;;;;;7.63;5.53;;;;;;;10.36;100.00;99194.50;5054895;28;20198;-59
2024/01/02 09:13:56;;;;;;;4.25;3.80;;;;;;;10.41;100.00;99198.44;5071286;28;20042;-59
2024/01/02 09:16:21;;;;;;;6.38;5.78;;;;;;;10.39;100.00;99194.22;5059786;28;20462;-59
2024/01/02 09:18:47;;;;;;;5.78;5.18;;;;;;;10.32;100.00;99187.75;5064013;28;20027;-59
2024/01/02 09:21:12;;;;;;;5.93;5.32;;;;;;;10.35;100.00;99183.03;5064290;28;20016;-60
2024/01/02 09:23:37;;;;;;;6.10;3.58;;;;;;;10.35;100.00;99180.38;5061568;28;20112;-59
2024/01/02 09:26:06;;;;;;;3.10;2.80;;;;;;;10.31;100.00;99165.66;5062625;28;20020;-60
2024/01/02 09:28:36;;;;;;;5.63;3.40;;;;;;;10.35;100.00;99164.44;5041141;28;20035;-59
2024/01/02 09:31:02;;;;;;;5.18;4.80;;;;;;;10.30;100.00;99153.38;5059550;28;20123;-59
2024/01/02 09:33:27;;;;;;;5.45;5.03;;;;;;;10.31;100.00;99155.03;5059919;28;20031;-59
2024/01/02 09:35:53;;;;;;;3.42;3.10;;;;;;;10.27;100.00;99153.66;5058545;28;20059;-59
2024/01/02 09:38:18;;;;;;;3.55;3.20;;;;;;;10.33;100.00;99158.41;5062518;28;20066;-59
2024/01/02 09:41:12;;;;;;;3.25;2.92;;;;;;;10.36;100.00;99154.66;5055660;28;20033;-59
2024/01/02 09:44:06;;;;;;;2.80;2.60;;;;;;;10.43;100.00;99163.72;5061951;28;20049;-59
2024/01/02 09:46:43;;;;;;;4.45;4.15;;;;;;;10.35;100.00;99161.78;5059612;28;20024;-59
2024/01/02 09:49:30;;;;;;;4.43;2.83;;;;;;;10.42;100.00;99167.38;5058396;28;20043;-60
2024/01/02 09:52:28;;;;;;;4.32;4.03;;;;;;;10.36;100.00;99171.44;5056332;28;20025;-59
2024/01/02 09:55:08;;;;;;;3.20;2.40;;;;;;;10.40;100.00;99166.66;5053214;28;20395;-59
2024/01/02 09:57:46;;;;;;;4.25;2.80;;;;;;;10.38;100.00;99147.34;5059403;28;20029;-59
2024/01/02 10:00:30;;;;;;;2.58;2.40;;;;;;;10.41;100.00;99153.25;5055756;28;20424;-59
2024/01/02 10:02:55;;;;;;;3.63;3.42;;;;;;;10.41;100.00;99155.91;5052341;28;20031;-59
2024/01/02 10:05:39;;;;;;;3.42;3.22;;;;;;;10.40;100.00;99164.00;5055976;28;20120;-59
2024/01/02 10:08:53;;;;;;;2.63;2.42;;;;;;;10.44;100.00;99163.59;5056813;28;20037;-59
2024/01/02 10:11:20;;;;;;;2.13;2.03;;;;;;;10.47;100.00;99159.84;5028966;28;20029;-59
2024/01/02 10:13:59;;;;;;;2.35;2.25;;;;;;;10.47;100.00;99159.84;5061226;28;20048;-59
2024/01/02 10:16:36;;;;;;;1.60;1.50;;;;;;;10.48;100.00;99150.03;5064931;28;20032;-59
2024/01/02 10:19:07;;;;;;;2.67;2.58;;;;;;;10.46;100.00;99144.84;5060110;28;20623;-59
2024/01/02 10:21:42;;;;;;;1.75;1.65;;;;;;;10.48;100.00;99145.56;5059074;28;20028;-59
2024/01/02 10:24:17;;;;;;;2.70;2.42;;;;;;;10.50;100.00;99145.41;5058392;28;20056;-59
2024/01/02 10:27:03;;;;;;;3.03;2.35;;;;;;;10.50;100.00;99143.63;5062190;28;20075;-60
2024/01/02 10:29:38;;;;;;;2.20;1.95;;;;;;;10.59;100.00;99139.25;5065761;28;20048;-59
2024/01/02 10:32:12;;;;;;;2.13;2.03;;;;;;;10.56;100.00;99123.59;5052596;28;20025;-60
2024/01/02 10:34:46;;;;;;;2.90;2.70;;;;;;;10.52;100.00;99125.69;5061157;28;20042;-59
2024/01/02 10:37:12;;;;;;;2.80;2.60;;;;;;;10.46;100.00;99119.09;5058480;28;20020;-59
2024/01/02 10:39:45;;;;;;;2.40;2.20;;;;;;;10.45;100.00;99113.94;5061160;28;20103;-58
2024/01/02 10:42:36;;;;;;;2.30;2.10;;;;;;;10.55;100.00;99127.22;5051797;28;20048;-60
2024/01/02 10:45:11;;;;;;;2.55;2.45;;;;;;;10.52;100.00;99115.06;5052984;28;20052;-60
2024/01/02 10:48:04;;;;;;;2.70;2.60;;;;;;;10.57;100.00;99131.44;5056298;28;20167;-60
2024/01/02 10:50:44;;;;;;;2.25;2.15;;;;;;;10.55;100.00;99119.25;5057859;28;20044;-60
2024/01/02 10:53:45;;;;;;;2.30;2.20;;;;;;;10.57;100.00;99109.34;5059959;28;20119;-60
2024/01/02 10:56:35;;;;;;;2.00;1.90;;;;;;;10.58;100.00;99103.88;5060392;28;20033;-60
2024/01/02 10:59:18;;;;;;;2.55;2.45;;;;;;;10.52;100.00;99099.09;5058947;28;20313;-59
2024/01/02 11:01:46;;;;;;;1.80;1.70;;;;;;;10.53;100.00;99103.47;5060729;28;20031;-59
2024/01/02 11:04:23;;;;;;;4.20;1.70;;;;;;;10.67;100.00;99100.34;5062748;28;20434;-59
2024/01/02 11:06:58;;;;;;;1.45;1.45;;;;;;;10.45;100.00;99084.72;5063807;28;20039;-59
2024/01/02 11:09:34;;;;;;;2.13;2.03;;;;;;;10.45;100.00;99084.72;5058634;28;20029;-59
2024/01/02 11:12:08;;;;;;;2.30;2.20;;;;;;;10.44;100.00;99080.34;5061928;28;20395;-58
2024/01/02 11:14:38;;;;;;;1.58;1.50;;;;;;;10.39;100.00;99069.31;5066363;28;20024;-58
2024/01/02 11:17:05;;;;;;;2.08;1.50;;;;;;;10.41;100.00;99083.28;5059858;28;20106;-58
2024/01/02 11:20:03;;;;;;;1.60;1.50;;;;;;;10.40;100.00;99076.31;5063596;28;20070;-59
2024/01/02 11:22:34;;;;;;;3.22;1.95;;;;;;;10.28;100.00;99061.47;5058911;28;20028;-58
2024/01/02 11:25:05;;;;;;;2.17;1.77;;;;;;;10.39;100.00;99062.19;5055775;28;20476;-58
2024/01/02 11:27:31;;;;;;;1.63;1.52;;;;;;;10.30;100.00;99051.56;5063906;28;20086;-58
2024/01/02 11:30:02;;;;;;;1.92;1.83;;;;;;;10.29;100.00;99055.19;5064153;28;20029;-58
2024/01/02 11:33:17;;;;;;;1.50;1.50;;;;;;;10.33;100.00;99045.97;5062954;28;20027;-58